createdAt,value
2022-08-21T00:00:45.458Z,97561.13
2022-08-21T00:03:56.353Z,97566.84
2022-08-21T00:07:03.093Z,97570.72
2022-08-21T00:10:10.832Z,97575.41
2022-08-21T00:13:18.894Z,97565.78
2022-08-21T00:16:24.987Z,97566.44
2022-08-21T00:19:33.517Z,97570.75
2022-08-21T00:22:40.358Z,97562.63
2022-08-21T00:25:48.411Z,97553.63
2022-08-21T00:28:54.012Z,97556.72
2022-08-21T00:32:01.278Z,97550.97
2022-08-21T00:35:12.791Z,97544.72
2022-08-21T00:38:18.848Z,97536.03
2022-08-21T00:41:36.983Z,97523.00
2022-08-21T00:44:44.019Z,97517.53
2022-08-21T00:47:49.611Z,97509.44
2022-08-21T00:51:05.039Z,97515.41
2022-08-21T00:54:18.454Z,97502.41
2022-08-21T00:57:34.409Z,97491.03
2022-08-21T01:00:45.535Z,97495.44
2022-08-21T01:03:51.891Z,97488.94
2022-08-21T01:07:00.918Z,97488.34
2022-08-21T01:10:09.875Z,97484.09
2022-08-21T01:13:45.793Z,97492.78
2022-08-21T01:16:56.554Z,97496.38
2022-08-21T01:20:03.255Z,97493.28
2022-08-21T01:23:11.875Z,97494.59
2022-08-21T01:26:22.553Z,97480.31
2022-08-21T01:29:46.837Z,97478.38
2022-08-21T01:32:53.856Z,97475.44
2022-08-21T01:35:59.519Z,97463.00
2022-08-21T01:39:10.362Z,97449.44
2022-08-21T01:42:17.455Z,97466.75
2022-08-21T01:45:24.616Z,97459.75
2022-08-21T01:48:30.306Z,97440.78
2022-08-21T01:51:36.192Z,97435.38
2022-08-21T01:54:45.950Z,97422.13
2022-08-21T01:58:03.799Z,97424.53
2022-08-21T02:01:10.497Z,97414.75
2022-08-21T02:04:16.321Z,97420.50
2022-08-21T02:07:22.441Z,97428.41
2022-08-21T02:10:35.517Z,97422.00
2022-08-21T02:13:41.063Z,97432.09
2022-08-21T02:16:52.179Z,97427.53
2022-08-21T02:20:14.509Z,97429.47
2022-08-21T02:23:20.638Z,97417.34
2022-08-21T02:26:35.700Z,97407.63
2022-08-21T02:29:41.280Z,97412.53
2022-08-21T02:32:50.692Z,97411.69
2022-08-21T02:35:59.564Z,97410.34
2022-08-21T02:39:10.752Z,97413.34
2022-08-21T02:42:19.315Z,97413.69
2022-08-21T02:45:25.365Z,97421.81
2022-08-21T02:48:52.172Z,97422.94
2022-08-21T02:51:58.421Z,97415.59
2022-08-21T02:55:04.603Z,97428.84
2022-08-21T02:58:13.858Z,97419.63
2022-08-21T03:01:21.386Z,97417.50
2022-08-21T03:04:27.740Z,97418.84
2022-08-21T03:07:34.784Z,97408.22
2022-08-21T03:10:42.365Z,97420.94
2022-08-21T03:13:51.023Z,97420.94
2022-08-21T03:16:56.673Z,97428.28
2022-08-21T03:20:09.375Z,97437.78
2022-08-21T03:23:18.350Z,97444.03
2022-08-21T03:26:26.211Z,97449.50
2022-08-21T03:29:36.206Z,97444.06
2022-08-21T03:32:42.310Z,97455.97
2022-08-21T03:35:55.677Z,97454.63
2022-08-21T03:39:01.347Z,97460.03
2022-08-21T03:42:08.002Z,97462.75
2022-08-21T03:45:18.041Z,97458.97
2022-08-21T03:48:24.237Z,97460.31
2022-08-21T03:51:30.011Z,97456.19
2022-08-21T03:54:40.565Z,97457.03
2022-08-21T03:57:46.361Z,97448.41
2022-08-21T04:01:01.769Z,97449.53
2022-08-21T04:04:08.997Z,97445.75
2022-08-21T04:07:14.626Z,97454.72
2022-08-21T04:10:22.784Z,97451.75
2022-08-21T04:13:30.144Z,97454.47
2022-08-21T04:16:38.560Z,97460.97
2022-08-21T04:19:44.257Z,97457.72
2022-08-21T04:22:51.799Z,97459.91
2022-08-21T04:26:00.263Z,97469.13
2022-08-21T04:29:07.682Z,97462.91
2022-08-21T04:32:27.081Z,97463.78
2022-08-21T04:35:33.948Z,97468.97
2022-08-21T04:38:39.779Z,97465.41
2022-08-21T04:41:50.543Z,97456.78
2022-08-21T04:44:56.760Z,97460.31
2022-08-21T04:48:14.104Z,97468.69
2022-08-21T04:51:28.323Z,97471.69
2022-08-21T04:54:36.766Z,97472.38
2022-08-21T04:57:48.598Z,97475.72
2022-08-21T05:01:02.060Z,97476.25
2022-08-21T05:04:16.720Z,97468.41
2022-08-21T05:07:42.386Z,97465.06
2022-08-21T05:10:49.780Z,97469.69
2022-08-21T05:13:57.332Z,97466.41
2022-08-21T05:17:04.935Z,97470.22
2022-08-21T05:20:16.038Z,97481.31
2022-08-21T05:23:22.842Z,97481.38
2022-08-21T05:26:31.228Z,97492.50
2022-08-21T05:29:38.391Z,97487.66
2022-08-21T05:32:44.128Z,97486.06
2022-08-21T05:35:54.205Z,97489.78
2022-08-21T05:39:00.078Z,97488.09
2022-08-21T05:42:05.804Z,97494.09
2022-08-21T05:45:12.448Z,97495.72
2022-08-21T05:48:21.660Z,97499.78
2022-08-21T05:51:30.142Z,97497.03
2022-08-21T05:54:36.110Z,97496.72
2022-08-21T05:57:42.499Z,97508.09
2022-08-21T06:00:51.157Z,97511.38
2022-08-21T06:03:56.765Z,97513.59
2022-08-21T06:07:16.065Z,97513.00
2022-08-21T06:10:22.095Z,97519.91
2022-08-21T06:13:28.426Z,97527.22
2022-08-21T06:16:34.052Z,97524.84
2022-08-21T06:19:40.110Z,97521.06
2022-08-21T06:22:48.390Z,97524.75
2022-08-21T06:25:53.981Z,97523.97
2022-08-21T06:29:03.308Z,97511.53
2022-08-21T06:32:10.776Z,97522.34
2022-08-21T06:35:16.345Z,97517.25
2022-08-21T06:38:24.738Z,97523.09
2022-08-21T06:41:30.564Z,97519.97
2022-08-21T06:44:44.877Z,97519.34
2022-08-21T06:47:52.492Z,97520.00
2022-08-21T06:50:58.074Z,97525.22
2022-08-21T06:54:12.797Z,97522.88
2022-08-21T06:57:18.450Z,97533.75
2022-08-21T07:00:24.457Z,97536.72
2022-08-21T07:03:35.220Z,97536.69
2022-08-21T07:06:40.900Z,97544.91
2022-08-21T07:09:49.045Z,97542.44
2022-08-21T07:13:00.434Z,97538.63
2022-08-21T07:16:07.875Z,97548.34
2022-08-21T07:19:13.932Z,97554.78
2022-08-21T07:22:24.323Z,97558.06
2022-08-21T07:25:32.602Z,97558.28
2022-08-21T07:28:38.384Z,97554.88
2022-08-21T07:31:43.916Z,97548.91
2022-08-21T07:34:49.555Z,97555.38
2022-08-21T07:37:55.163Z,97560.38
2022-08-21T07:41:06.114Z,97560.75
2022-08-21T07:44:12.660Z,97559.31
2022-08-21T07:47:41.607Z,97559.88
2022-08-21T07:50:45.169Z,97557.03
2022-08-21T07:53:55.082Z,97560.47
2022-08-21T07:57:09.313Z,97557.94
2022-08-21T08:00:20.721Z,97559.88
2022-08-21T08:03:29.140Z,97554.34
2022-08-21T08:06:39.953Z,97548.25
2022-08-21T08:09:45.451Z,97552.41
2022-08-21T08:12:55.958Z,97547.50
2022-08-21T08:16:01.666Z,97540.34
2022-08-21T08:19:27.530Z,97547.16
2022-08-21T08:22:40.170Z,97542.94
2022-08-21T08:25:48.014Z,97543.94
2022-08-21T08:28:56.241Z,97539.38
2022-08-21T08:32:04.934Z,97547.91
2022-08-21T08:35:13.046Z,97538.78
2022-08-21T08:38:24.454Z,97545.88
2022-08-21T08:41:31.263Z,97543.19
2022-08-21T08:44:43.828Z,97542.91
2022-08-21T08:47:59.378Z,97543.13
2022-08-21T08:51:12.693Z,97543.78
2022-08-21T08:54:28.075Z,97543.81
2022-08-21T08:57:35.701Z,97540.31
2022-08-21T09:00:44.137Z,97539.53
2022-08-21T09:03:55.311Z,97524.75
2022-08-21T09:07:21.478Z,97534.09
2022-08-21T09:10:45.161Z,97534.53
2022-08-21T09:14:13.117Z,97538.91
2022-08-21T09:17:52.868Z,97545.25
2022-08-21T09:21:16.796Z,97530.03
2022-08-21T09:24:37.594Z,97541.28
2022-08-21T09:27:43.701Z,97544.00
2022-08-21T09:30:49.242Z,97546.16
2022-08-21T09:34:03.254Z,97560.53
2022-08-21T09:37:19.619Z,97558.06
2022-08-21T09:40:40.484Z,97556.25
2022-08-21T09:43:58.130Z,97552.16
2022-08-21T09:47:03.832Z,97550.06
2022-08-21T09:50:20.802Z,97554.53
2022-08-21T09:53:35.631Z,97561.06
2022-08-21T09:57:10.122Z,97562.38
2022-08-21T10:00:30.888Z,97574.31
2022-08-21T10:03:39.561Z,97578.06
2022-08-21T10:06:47.753Z,97574.00
2022-08-21T10:10:06.118Z,97582.09
2022-08-21T10:13:24.726Z,97581.75
2022-08-21T10:16:50.271Z,97586.19
2022-08-21T10:20:09.521Z,97583.81
2022-08-21T10:23:45.025Z,97574.97
2022-08-21T10:27:16.789Z,97582.31
2022-08-21T10:30:54.539Z,97582.50
2022-08-21T10:34:34.915Z,97586.53
2022-08-21T10:38:01.652Z,97585.66
2022-08-21T10:41:27.460Z,97583.78
2022-08-21T10:44:58.866Z,97580.41
2022-08-21T10:48:17.470Z,97582.25
2022-08-21T10:51:38.045Z,97582.81
2022-08-21T10:54:59.993Z,97579.28
2022-08-21T10:58:16.011Z,97575.66
2022-08-21T11:01:32.765Z,97579.38
2022-08-21T11:04:52.242Z,97576.66
2022-08-21T11:08:10.789Z,97581.53
2022-08-21T11:11:29.419Z,97584.19
2022-08-21T11:14:57.906Z,97587.13
2022-08-21T11:18:32.152Z,97576.56
2022-08-21T11:21:49.908Z,97574.94
2022-08-21T11:25:07.508Z,97570.91
2022-08-21T11:28:33.556Z,97579.91
2022-08-21T11:32:07.992Z,97578.41
2022-08-21T11:35:30.018Z,97576.34
2022-08-21T11:38:44.355Z,97582.78
2022-08-21T11:42:08.988Z,97579.50
2022-08-21T11:45:35.462Z,97579.28
2022-08-21T11:49:07.657Z,97578.13
2022-08-21T11:52:27.130Z,97577.69
2022-08-21T11:55:43.018Z,97585.63
2022-08-21T11:59:01.871Z,97580.88
2022-08-21T12:02:17.875Z,97578.31
2022-08-21T12:05:39.546Z,97581.97
2022-08-21T12:08:49.742Z,97575.16
2022-08-21T12:12:08.862Z,97579.97
2022-08-21T12:15:29.943Z,97578.34
2022-08-21T12:18:38.772Z,97590.13
2022-08-21T12:22:16.398Z,97584.47
2022-08-21T12:25:25.590Z,97593.25
2022-08-21T12:28:35.852Z,97596.56
2022-08-21T12:31:59.550Z,97590.63
2022-08-21T12:35:23.848Z,97589.53
2022-08-21T12:38:52.651Z,97597.53
2022-08-21T12:42:12.384Z,97588.22
2022-08-21T12:45:30.094Z,97589.66
2022-08-21T12:48:45.052Z,97586.81
2022-08-21T12:52:01.676Z,97589.25
2022-08-21T12:55:18.178Z,97584.41
2022-08-21T12:58:26.336Z,97594.03
2022-08-21T13:01:41.486Z,97597.09
2022-08-21T13:04:51.438Z,97591.44
2022-08-21T13:07:57.692Z,97593.00
2022-08-21T13:11:15.234Z,97588.56
2022-08-21T13:14:32.293Z,97590.41
2022-08-21T13:17:51.772Z,97592.97
2022-08-21T13:21:10.483Z,97592.25
2022-08-21T13:24:41.909Z,97599.94
2022-08-21T13:28:16.663Z,97608.41
2022-08-21T13:31:34.692Z,97603.78
2022-08-21T13:34:42.210Z,97605.16
2022-08-21T13:37:53.057Z,97601.38
2022-08-21T13:41:07.919Z,97601.38
2022-08-21T13:44:27.743Z,97602.47
2022-08-21T13:47:33.645Z,97608.38
2022-08-21T13:50:51.523Z,97622.22
2022-08-21T13:54:01.561Z,97620.47
2022-08-21T13:57:19.230Z,97611.00
2022-08-21T14:00:35.939Z,97614.28
2022-08-21T14:03:50.386Z,97613.13
2022-08-21T14:06:58.159Z,97626.00
2022-08-21T14:10:08.826Z,97621.09
2022-08-21T14:13:43.573Z,97625.91
2022-08-21T14:17:24.470Z,97619.47
2022-08-21T14:20:36.317Z,97626.59
2022-08-21T14:23:42.733Z,97621.75
2022-08-21T14:26:54.513Z,97620.44
2022-08-21T14:30:05.564Z,97628.03
2022-08-21T14:33:30.269Z,97629.22
2022-08-21T14:36:35.858Z,97626.59
2022-08-21T14:39:45.148Z,97613.31
2022-08-21T14:42:51.964Z,97623.75
2022-08-21T14:45:58.217Z,97630.31
2022-08-21T14:49:13.204Z,97629.25
2022-08-21T14:52:20.124Z,97638.41
2022-08-21T14:55:26.326Z,97638.78
2022-08-21T14:58:35.158Z,97633.75
2022-08-21T15:01:48.356Z,97640.34
2022-08-21T15:05:00.371Z,97633.53
2022-08-21T15:08:06.480Z,97633.09
2022-08-21T15:11:41.853Z,97638.38
2022-08-21T15:14:46.873Z,97638.59
2022-08-21T15:17:52.421Z,97638.13
2022-08-21T15:21:01.790Z,97638.72
2022-08-21T15:24:09.011Z,97649.97
2022-08-21T15:27:24.793Z,97652.88
2022-08-21T15:30:31.367Z,97650.66
2022-08-21T15:33:53.073Z,97657.91
2022-08-21T15:37:02.059Z,97660.94
2022-08-21T15:40:13.153Z,97661.63
2022-08-21T15:43:30.675Z,97673.72
2022-08-21T15:46:49.605Z,97674.03
2022-08-21T15:49:55.378Z,97665.38
2022-08-21T15:53:13.899Z,97665.16
2022-08-21T15:56:28.805Z,97658.94
2022-08-21T15:59:45.017Z,97654.03
2022-08-21T16:02:57.311Z,97658.94
2022-08-21T16:06:04.917Z,97666.59
2022-08-21T16:09:16.821Z,97668.94
2022-08-21T16:12:38.478Z,97673.56
2022-08-21T16:15:44.500Z,97676.25
2022-08-21T16:18:51.991Z,97681.31
2022-08-21T16:21:59.773Z,97678.63
2022-08-21T16:25:10.275Z,97683.19
2022-08-21T16:28:24.969Z,97687.00
2022-08-21T16:31:31.162Z,97679.44
2022-08-21T16:34:37.153Z,97683.78
2022-08-21T16:37:43.839Z,97686.06
2022-08-21T16:40:59.536Z,97686.72
2022-08-21T16:44:08.526Z,97686.34
2022-08-21T16:47:26.453Z,97672.06
2022-08-21T16:50:32.804Z,97669.81
2022-08-21T16:53:38.386Z,97669.81
2022-08-21T16:56:47.938Z,97677.50
2022-08-21T16:59:54.129Z,97666.88
2022-08-21T17:03:00.822Z,97650.66
2022-08-21T17:06:08.288Z,97643.88
2022-08-21T17:09:14.247Z,97651.06
2022-08-21T17:12:22.890Z,97657.06
2022-08-21T17:15:40.797Z,97651.56
2022-08-21T17:18:48.041Z,97639.44
2022-08-21T17:21:57.604Z,97644.72
2022-08-21T17:25:03.240Z,97632.00
2022-08-21T17:28:16.873Z,97626.97
2022-08-21T17:31:22.799Z,97621.59
2022-08-21T17:34:31.828Z,97616.22
2022-08-21T17:37:37.800Z,97611.91
2022-08-21T17:40:44.257Z,97614.81
2022-08-21T17:43:55.472Z,97611.75
2022-08-21T17:47:01.428Z,97621.31
2022-08-21T17:50:09.320Z,97632.88
2022-08-21T17:53:15.076Z,97634.53
2022-08-21T17:56:23.245Z,97652.97
2022-08-21T17:59:38.642Z,97658.34
2022-08-21T18:02:51.364Z,97661.28
2022-08-21T18:05:57.342Z,97657.06
2022-08-21T18:09:03.088Z,97654.84
2022-08-21T18:12:09.901Z,97659.75
2022-08-21T18:15:22.290Z,97664.31
2022-08-21T18:18:35.696Z,97673.19
2022-08-21T18:21:41.498Z,97676.66
2022-08-21T18:24:47.317Z,97674.59
2022-08-21T18:27:53.975Z,97672.03
2022-08-21T18:31:02.580Z,97665.72
2022-08-21T18:34:21.826Z,97661.75
2022-08-21T18:37:27.501Z,97661.16
2022-08-21T18:40:38.104Z,97657.06
2022-08-21T18:43:44.297Z,97660.59
2022-08-21T18:46:59.678Z,97666.09
2022-08-21T18:50:05.950Z,97675.47
2022-08-21T18:53:27.474Z,97678.25
2022-08-21T18:56:37.118Z,97686.44
2022-08-21T18:59:44.258Z,97683.41
2022-08-21T19:02:52.848Z,97687.97
2022-08-21T19:05:58.762Z,97691.13
2022-08-21T19:09:05.611Z,97682.47
2022-08-21T19:12:14.787Z,97686.94
2022-08-21T19:15:25.327Z,97671.38
2022-08-21T19:18:41.976Z,97666.81
2022-08-21T19:21:49.335Z,97673.47
2022-08-21T19:24:55.332Z,97654.19
2022-08-21T19:28:01.777Z,97644.03
2022-08-21T19:31:16.297Z,97647.28
2022-08-21T19:34:31.514Z,97643.16
2022-08-21T19:37:37.145Z,97637.31
2022-08-21T19:40:43.551Z,97636.28
2022-08-21T19:43:56.354Z,97627.16
2022-08-21T19:50:32.463Z,97629.97
2022-08-21T19:53:38.101Z,97628.78
2022-08-21T19:56:46.518Z,97617.22
2022-08-21T19:59:54.640Z,97622.13
2022-08-21T20:03:01.065Z,97617.34
2022-08-21T20:06:13.261Z,97622.25
2022-08-21T20:09:21.571Z,97612.66
2022-08-21T20:12:28.156Z,97610.34
2022-08-21T20:15:34.428Z,97620.41
2022-08-21T20:18:41.904Z,97623.13
2022-08-21T20:21:53.747Z,97612.97
2022-08-21T20:24:59.456Z,97617.88
2022-08-21T20:28:06.196Z,97613.91
2022-08-21T20:31:15.332Z,97615.09
2022-08-21T20:34:21.958Z,97605.31
2022-08-21T20:37:36.593Z,97588.19
2022-08-21T20:40:45.565Z,97584.09
2022-08-21T20:43:54.031Z,97586.41
2022-08-21T20:47:08.873Z,97587.94
2022-08-21T20:50:31.966Z,97579.22
2022-08-21T20:53:53.659Z,97585.06
2022-08-21T20:57:16.170Z,97575.59
2022-08-21T21:00:27.885Z,97571.28
2022-08-21T21:03:44.088Z,97579.56
2022-08-21T21:06:58.415Z,97577.59
2022-08-21T21:10:21.235Z,97582.28
2022-08-21T21:13:37.642Z,97592.22
2022-08-21T21:17:02.049Z,97596.75
2022-08-21T21:20:25.061Z,97600.84
2022-08-21T21:23:43.756Z,97594.19
2022-08-21T21:27:00.778Z,97592.44
2022-08-21T21:30:38.448Z,97599.69
2022-08-21T21:33:44.196Z,97594.91
2022-08-21T21:37:05.016Z,97592.69
2022-08-21T21:40:42.545Z,97597.13
2022-08-21T21:44:28.914Z,97597.47
2022-08-21T21:47:58.632Z,97589.06
2022-08-21T21:51:21.666Z,97587.53
2022-08-21T21:55:01.078Z,97585.78
2022-08-21T21:58:44.693Z,97586.50
2022-08-21T22:02:05.445Z,97579.50
2022-08-21T22:05:24.742Z,97588.53
2022-08-21T22:08:50.739Z,97581.38
2022-08-21T22:12:10.752Z,97587.38
2022-08-21T22:15:26.437Z,97588.16
2022-08-21T22:18:45.339Z,97590.38
2022-08-21T22:22:01.624Z,97591.31
2022-08-21T22:25:22.178Z,97583.41
2022-08-21T22:28:32.969Z,97584.81
2022-08-21T22:31:38.727Z,97581.44
2022-08-21T22:35:09.466Z,97585.16
2022-08-21T22:38:32.439Z,97578.63
2022-08-21T22:41:46.086Z,97584.59
2022-08-21T22:44:57.597Z,97580.97
2022-08-21T22:48:22.435Z,97580.84
2022-08-21T22:51:40.440Z,97583.53
2022-08-21T22:54:53.197Z,97579.78
2022-08-21T22:58:15.254Z,97577.22
2022-08-21T23:01:40.298Z,97582.25
2022-08-21T23:04:51.370Z,97570.91
2022-08-21T23:08:04.344Z,97573.22
2022-08-21T23:14:46.672Z,97564.81
2022-08-21T23:18:15.670Z,97570.31
2022-08-21T23:21:36.007Z,97579.69
2022-08-21T23:25:07.493Z,97562.56
2022-08-21T23:28:39.690Z,97555.19
2022-08-21T23:32:06.843Z,97556.72
2022-08-21T23:35:24.008Z,97559.06
2022-08-21T23:38:51.534Z,97556.00
2022-08-21T23:42:20.863Z,97556.47
2022-08-21T23:45:46.080Z,97553.53
2022-08-21T23:49:12.258Z,97547.72
2022-08-21T23:52:44.161Z,97550.94
2022-08-21T23:56:14.317Z,97554.22
2022-08-21T23:59:41.413Z,97556.56
